Time;durP1;ratioP1;P1;durP2;ratioP2;P2;SDS_P1;SDS_P2;PMS_P1;PMS_P2;Temp;Humidity;BMP_temperature;BMP_pressure;BME280_temperature;BME280_humidity;BME280_pressure;Samples;Min_cycle;Max_cycle;Signal;HPM_P1;HPM_P2
2023/04/11 00:01:21;;;;;;;;;;;;;;;29.48;69.36;101022.75;5075320;27;70437;-40
2023/04/11 00:04:02;;;;;;;;;;;;;;;29.60;70.09;101031.91;5072921;27;66286;-44
2023/04/11 00:06:33;;;;;;;;;;;;;;;29.64;70.19;101027.75;5075414;27;70273;-42
2023/04/11 00:09:04;;;;;;;;;;;;;;;29.66;67.50;101030.25;5076719;27;65906;-43
2023/04/11 00:11:34;;;;;;;;;;;;;;;29.65;65.60;101031.31;5078146;27;70427;-43
2023/04/11 00:14:07;;;;;;;;;;;;;;;29.68;65.51;101034.44;5080276;27;66627;-43
2023/04/11 00:16:40;;;;;;;;;;;;;;;29.73;65.14;101037.34;5079071;27;70318;-42
2023/04/11 00:19:10;;;;;;;;;;;;;;;29.77;64.34;101035.88;5080425;27;65130;-41
2023/04/11 00:21:40;;;;;;;;;;;;;;;29.81;64.91;101029.00;5078246;27;69234;-42
2023/04/11 00:24:11;;;;;;;;;;;;;;;29.86;65.05;101041.06;5078828;27;66559;-42
2023/04/11 00:26:41;;;;;;;;;;;;;;;29.91;64.76;101036.69;5079099;28;69832;-42
2023/04/11 00:29:34;;;;;;;;;;;;;;;29.95;64.75;101037.09;5043979;28;66612;-41
2023/04/11 00:32:04;;;;;;;;;;;;;;;30.05;70.20;101045.63;5077507;28;70851;-42
2023/04/11 00:34:34;;;;;;;;;;;;;;;30.04;67.03;101043.97;5078591;27;66523;-39
2023/04/11 00:37:05;;;;;;;;;;;;;;;30.04;64.82;101043.97;5077582;27;69670;-39
2023/04/11 00:39:37;;;;;;;;;;;;;;;30.05;64.00;101051.03;5091361;27;66092;-39
2023/04/11 00:42:07;;;;;;;;;;;;;;;30.08;63.67;101069.53;5078977;27;69831;-38
2023/04/11 00:44:39;;;;;;;;;;;;;;;30.11;63.52;101069.09;5061533;28;66352;-39
2023/04/11 00:47:10;;;;;;;;;;;;;;;30.13;63.02;101067.03;5077815;27;69487;-40
2023/04/11 00:49:40;;;;;;;;;;;;;;;30.15;62.68;101070.38;5080401;27;66733;-39
2023/04/11 00:52:11;;;;;;;;;;;;;;;30.17;62.43;101065.59;5078938;27;70363;-40
2023/04/11 00:54:41;;;;;;;;;;;;;;;30.19;61.94;101066.19;5078989;27;66024;-40
2023/04/11 00:57:12;;;;;;;;;;;;;;;30.21;62.02;101064.09;5079934;27;69670;-40
2023/04/11 00:59:43;;;;;;;;;;;;;;;30.24;61.92;101071.84;5079398;27;65859;-40
2023/04/11 01:02:13;;;;;;;;;;;;;;;30.26;62.07;101072.47;5079858;27;69661;-39
2023/04/11 01:04:44;;;;;;;;;;;;;;;30.28;61.96;101075.78;5046977;27;66458;-40
2023/04/11 01:07:15;;;;;;;;;;;;;;;30.30;61.77;101063.91;5078790;27;70414;-39
2023/04/11 01:09:46;;;;;;;;;;;;;;;30.32;61.29;101078.06;5082561;27;65677;-39
2023/04/11 01:12:16;;;;;;;;;;;;;;;30.33;61.35;101077.03;5077904;27;70210;-40
2023/04/11 01:14:47;;;;;;;;;;;;;;;30.35;60.95;101077.66;5081883;27;66986;-39
2023/04/11 01:17:20;;;;;;;;;;;;;;;30.37;61.33;101080.94;5080544;27;69448;-39
2023/04/11 01:19:51;;;;;;;;;;;;;;;30.38;60.94;101088.88;5077608;27;66459;-39
2023/04/11 01:22:22;;;;;;;;;;;;;;;30.41;61.03;101087.63;5079233;27;70423;-40
2023/04/11 01:24:52;;;;;;;;;;;;;;;30.42;60.64;101089.28;5050660;27;65815;-39
2023/04/11 01:27:23;;;;;;;;;;;;;;;30.44;61.04;101089.91;5075544;28;69572;-39
2023/04/11 01:29:53;;;;;;;;;;;;;;;30.45;61.01;101094.25;5076091;27;64954;-39
2023/04/11 01:32:25;;;;;;;;;;;;;;;30.47;60.52;101086.75;5072810;27;69557;-39
2023/04/11 01:34:57;;;;;;;;;;;;;;;30.49;60.92;101085.50;5059506;27;67605;-39
2023/04/11 01:37:32;;;;;;;;;;;;;;;30.51;60.56;101098.84;5059336;28;70259;-39
2023/04/11 01:40:04;;;;;;;;;;;;;;;30.54;60.59;101089.47;5077336;27;65805;-39
2023/04/11 01:42:35;;;;;;;;;;;;;;;30.56;60.09;101090.88;5078982;27;69242;-38
2023/04/11 01:45:05;;;;;;;;;;;;;;;30.58;60.07;101090.69;5071608;27;67873;-39
2023/04/11 01:47:36;;;;;;;;;;;;;;;30.60;60.24;101086.72;5079884;27;69924;-39
2023/04/11 01:50:07;;;;;;;;;;;;;;;30.62;59.91;101095.47;5080171;27;67148;-39
2023/04/11 01:52:37;;;;;;;;;;;;;;;30.23;60.22;101013.34;5078756;27;69681;-39
2023/04/11 01:55:11;;;;;;;;;;;;;;;30.66;60.54;101090.44;5078802;27;67054;-39
2023/04/11 01:57:49;;;;;;;;;;;;;;;30.69;60.30;101084.59;5057042;28;69574;-39
2023/04/11 02:00:23;;;;;;;;;;;;;;;30.71;60.50;101087.94;5061615;28;65776;-39
2023/04/11 02:03:06;;;;;;;;;;;;;;;30.73;59.59;101086.69;5069463;27;69993;-39
2023/04/11 02:05:51;;;;;;;;;;;;;;;30.76;59.66;101084.56;5089554;27;66362;-39
2023/04/11 02:08:45;;;;;;;;;;;;;;;30.78;60.16;101087.91;5080461;27;69904;-39
2023/04/11 02:11:34;;;;;;;;;;;;;;;30.80;60.14;101086.69;5079326;27;66898;-39
2023/04/11 02:14:05;;;;;;;;;;;;;;;30.83;59.85;101085.41;5077758;27;70442;-39
2023/04/11 02:16:48;;;;;;;;;;;;;;;30.86;59.65;101084.97;5058374;28;66148;-39
2023/04/11 02:19:20;;;;;;;;;;;;;;;30.88;59.72;101088.31;5063067;27;70027;-39
2023/04/11 02:21:51;;;;;;;;;;;;;;;30.91;59.59;101085.16;5074890;27;66654;-39
2023/04/11 02:24:22;;;;;;;;;;;;;;;30.93;60.07;101093.94;5078401;27;69325;-39
2023/04/11 02:26:52;;;;;;;;;;;;;;;30.96;59.81;101095.38;5079419;27;66227;-40
2023/04/11 02:29:22;;;;;;;;;;;;;;;30.97;59.72;101087.00;5075944;27;69247;-40
2023/04/11 02:31:52;;;;;;;;;;;;;;;31.00;59.73;101086.56;5076116;27;66742;-41
2023/04/11 02:34:23;;;;;;;;;;;;;;;31.02;59.84;101095.31;5088150;27;70450;-39
2023/04/11 02:36:53;;;;;;;;;;;;;;;31.05;59.85;101094.88;5073007;27;67125;-41
2023/04/11 02:39:24;;;;;;;;;;;;;;;31.07;59.72;101087.38;5055528;28;70030;-41
2023/04/11 02:41:56;;;;;;;;;;;;;;;31.09;59.74;101090.72;5058374;28;66285;-40
2023/04/11 02:44:28;;;;;;;;;;;;;;;31.12;59.65;101086.72;5073083;27;70730;-40
2023/04/11 02:47:00;;;;;;;;;;;;;;;31.14;59.51;101077.31;5073934;27;67584;-41
2023/04/11 02:49:31;;;;;;;;;;;;;;;31.17;59.53;101087.75;5057164;28;70127;-39
2023/04/11 02:52:01;;;;;;;;;;;;;;;31.22;59.35;101094.38;5056229;28;66857;-38
2023/04/11 02:54:32;;;;;;;;;;;;;;;31.23;59.53;101096.03;5074983;27;69786;-39
2023/04/11 02:57:03;;;;;;;;;;;;;;;31.26;59.36;101098.31;5090838;27;66093;-40
2023/04/11 02:59:33;;;;;;;;;;;;;;;31.29;59.49;101097.91;5056859;28;70822;-40
2023/04/11 03:02:03;;;;;;;;;;;;;;;31.30;59.24;101096.84;5087742;27;65899;-39
2023/04/11 03:04:34;;;;;;;;;;;;;;;31.34;59.43;101089.91;5058214;28;68316;-38
2023/04/11 03:07:13;;;;;;;;;;;;;;;31.35;59.32;101089.72;5049465;27;66974;-45
2023/04/11 03:09:43;;;;;;;;;;;;;;;31.37;59.11;101081.38;5074554;28;70697;-39
2023/04/11 03:12:14;;;;;;;;;;;;;;;31.41;59.03;101085.31;5074693;27;66587;-39
2023/04/11 03:14:53;;;;;;;;;;;;;;;31.42;59.15;101070.72;5041500;28;70044;-40
2023/04/11 03:17:23;;;;;;;;;;;;;;;31.45;59.29;101072.97;5058035;27;65014;-44
2023/04/11 03:19:53;;;;;;;;;;;;;;;31.46;58.75;101066.53;5056005;28;70587;-39
2023/04/11 03:22:24;;;;;;;;;;;;;;;31.49;59.15;101074.22;5041509;28;66450;-39
2023/04/11 03:24:55;;;;;;;;;;;;;;;31.51;58.88;101058.56;5075222;27;69782;-40
2023/04/11 03:27:26;;;;;;;;;;;;;;;31.55;59.02;101058.94;5090122;27;65939;-39
2023/04/11 03:30:00;;;;;;;;;;;;;;;31.57;58.78;101054.97;5084998;27;70518;-39
2023/04/11 03:32:42;;;;;;;;;;;;;;;31.59;58.66;101042.03;5073559;27;65689;-39
2023/04/11 03:35:13;;;;;;;;;;;;;;;31.63;58.85;101047.00;5055063;28;69673;-39
2023/04/11 03:37:47;;;;;;;;;;;;;;;31.64;58.35;101038.63;5057367;27;65980;-40
2023/04/11 03:40:17;;;;;;;;;;;;;;;31.67;58.46;101049.03;5061954;27;70493;-40
2023/04/11 03:43:00;;;;;;;;;;;;;;;31.70;58.40;101043.16;5067969;28;65485;-39
2023/04/11 03:45:35;;;;;;;;;;;;;;;31.72;58.33;101046.50;5079162;28;70934;-39
2023/04/11 03:48:11;;;;;;;;;;;;;;;31.75;58.09;101042.50;5035554;28;65591;-39
2023/04/11 03:50:52;;;;;;;;;;;;;;;31.78;57.97;101025.78;5061047;27;70412;-39
2023/04/11 03:53:29;;;;;;;;;;;;;;;31.80;57.89;101020.97;5080845;27;66635;-40
2023/04/11 03:56:06;;;;;;;;;;;;;;;31.84;57.60;101027.59;5063106;28;69948;-44
2023/04/11 03:58:38;;;;;;;;;;;;;;;31.87;57.46;101018.19;5069027;27;66023;-39
2023/04/11 04:01:08;;;;;;;;;;;;;;;31.89;57.37;101014.19;5079079;27;70791;-39
2023/04/11 04:03:39;;;;;;;;;;;;;;;31.92;57.48;101013.78;5075328;27;65577;-39
2023/04/11 04:06:13;;;;;;;;;;;;;;;31.92;57.10;101002.94;5074071;27;70438;-40
2023/04/11 04:08:46;;;;;;;;;;;;;;;31.96;57.22;101006.88;5075358;27;66596;-39
2023/04/11 04:11:19;;;;;;;;;;;;;;;31.97;57.24;100997.66;5079286;27;69932;-39
2023/04/11 04:13:50;;;;;;;;;;;;;;;32.00;57.14;100999.91;5077212;27;66429;-40
2023/04/11 04:16:21;;;;;;;;;;;;;;;32.01;57.41;100996.16;5076499;27;70534;-42
2023/04/11 04:18:56;;;;;;;;;;;;;;;32.03;56.96;100994.03;5093597;27;65772;-40
2023/04/11 04:21:31;;;;;;;;;;;;;;;32.04;57.16;100990.28;5076972;28;69481;-40
2023/04/11 04:24:03;;;;;;;;;;;;;;;32.05;57.28;100978.38;5043178;28;67426;-40
2023/04/11 04:27:02;;;;;;;;;;;;;;;32.08;57.43;100968.94;5076117;27;70472;-40
2023/04/11 04:29:46;;;;;;;;;;;;;;;32.11;57.36;100973.91;5076918;27;66465;-41
2023/04/11 04:32:27;;;;;;;;;;;;;;;32.12;57.06;100972.03;5058654;28;69551;-40
2023/04/11 04:35:05;;;;;;;;;;;;;;;32.13;56.95;100960.13;5054564;27;66302;-41
2023/04/11 04:37:44;;;;;;;;;;;;;;;32.17;57.17;100970.28;5092688;27;70479;-44
2023/04/11 04:40:30;;;;;;;;;;;;;;;32.19;57.03;100959.22;5060684;28;66934;-39
2023/04/11 04:43:07;;;;;;;;;;;;;;;32.20;56.95;100961.69;5074806;27;70237;-40
2023/04/11 04:46:01;;;;;;;;;;;;;;;32.22;57.08;100953.34;5072170;27;65957;-40
2023/04/11 04:48:39;;;;;;;;;;;;;;;32.23;57.13;100950.41;5092741;27;70041;-40
2023/04/11 04:51:09;;;;;;;;;;;;;;;32.26;57.00;100949.09;5094319;27;66700;-39
2023/04/11 04:53:40;;;;;;;;;;;;;;;32.27;56.94;100945.34;5061232;27;69948;-39
2023/04/11 04:56:11;;;;;;;;;;;;;;;32.28;57.02;100941.56;5060387;28;67235;-39
2023/04/11 04:58:46;;;;;;;;;;;;;;;32.30;56.79;100950.31;5093868;27;69274;-40
2023/04/11 05:01:21;;;;;;;;;;;;;;;32.31;56.96;100930.25;5080614;27;65917;-40
2023/04/11 05:04:04;;;;;;;;;;;;;;;32.32;56.84;100926.50;5084110;27;68974;-41
2023/04/11 05:06:57;;;;;;;;;;;;;;;32.34;56.86;100924.34;5058334;27;66362;-40
2023/04/11 05:09:29;;;;;;;;;;;;;;;32.34;56.69;100918.94;5062729;28;69971;-40
2023/04/11 05:12:10;;;;;;;;;;;;;;;32.37;56.70;100923.91;5059527;28;66628;-40
2023/04/11 05:14:41;;;;;;;;;;;;;;;32.38;56.60;100917.44;5061726;28;69770;-40
2023/04/11 05:17:12;;;;;;;;;;;;;;;32.39;56.54;100904.66;5060376;27;67091;-40
2023/04/11 05:19:45;;;;;;;;;;;;;;;32.41;56.78;100908.81;5075697;28;69918;-40
2023/04/11 05:22:16;;;;;;;;;;;;;;;32.41;56.52;100897.97;5096556;27;66498;-40
2023/04/11 05:24:50;;;;;;;;;;;;;;;32.43;56.53;100890.41;5066390;28;69409;-38
2023/04/11 05:27:20;;;;;;;;;;;;;;;32.45;56.60;100885.56;5097634;27;66822;-41
2023/04/11 05:29:53;;;;;;;;;;;;;;;32.46;56.29;100883.72;5045787;27;69455;-40
2023/04/11 05:32:23;;;;;;;;;;;;;;;32.47;56.60;100869.91;5078428;27;65926;-39
2023/04/11 05:34:55;;;;;;;;;;;;;;;32.49;56.28;100870.50;5078451;27;69122;-39
2023/04/11 05:37:36;;;;;;;;;;;;;;;32.32;56.48;100827.91;5072073;27;67419;-42
2023/04/11 05:40:07;;;;;;;;;;;;;;;32.53;56.39;100859.19;5079137;27;71134;-40
2023/04/11 05:42:38;;;;;;;;;;;;;;;32.54;56.03;100852.69;5062659;27;67082;-40
2023/04/11 05:45:09;;;;;;;;;;;;;;;32.56;56.27;100847.84;5080091;27;69748;-40
2023/04/11 05:47:39;;;;;;;;;;;;;;;32.57;56.36;100841.34;5077385;27;65936;-40
2023/04/11 05:50:10;;;;;;;;;;;;;;;32.58;56.30;100827.56;5069710;27;70168;-40
2023/04/11 05:52:40;;;;;;;;;;;;;;;32.60;56.37;100825.44;5057814;28;66659;-40
2023/04/11 05:55:10;;;;;;;;;;;;;;;32.62;56.19;100826.00;5079339;27;70744;-41
2023/04/11 05:57:41;;;;;;;;;;;;;;;32.63;56.21;100816.81;5077625;27;66050;-39
2023/04/11 06:00:13;;;;;;;;;;;;;;;32.64;56.05;100817.66;5078396;27;69952;-39
2023/04/11 06:02:43;;;;;;;;;;;;;;;32.66;55.92;100802.78;5070788;27;65442;-39
2023/04/11 06:05:16;;;;;;;;;;;;;;;32.67;56.01;100798.16;5079395;27;70322;-41
2023/04/11 06:07:46;;;;;;;;;;;;;;;32.70;56.06;100797.69;5077528;27;66314;-40
2023/04/11 06:10:16;;;;;;;;;;;;;;;32.72;55.93;100790.16;5077233;27;69297;-40
2023/04/11 06:12:47;;;;;;;;;;;;;;;32.74;56.16;100781.78;5073715;27;66661;-40
2023/04/11 06:15:17;;;;;;;;;;;;;;;32.74;55.97;100782.59;5077704;27;69914;-40
2023/04/11 06:17:47;;;;;;;;;;;;;;;32.77;55.88;100778.59;5069739;27;65987;-39
2023/04/11 06:20:19;;;;;;;;;;;;;;;32.78;55.99;100774.78;5044768;28;69171;-40
2023/04/11 06:22:52;;;;;;;;;;;;;;;32.80;55.78;100765.34;5077864;27;66022;-40
2023/04/11 06:25:23;;;;;;;;;;;;;;;32.81;55.93;100761.56;5079350;27;69612;-39
2023/04/11 06:27:53;;;;;;;;;;;;;;;32.66;55.84;100734.06;5072034;27;66172;-39
2023/04/11 06:30:23;;;;;;;;;;;;;;;32.84;55.65;100754.81;5078982;27;69718;-40
2023/04/11 06:32:55;;;;;;;;;;;;;;;32.70;55.65;100716.22;5061336;27;65822;-39
2023/04/11 06:35:25;;;;;;;;;;;;;;;32.88;55.76;100737.81;5069697;27;70615;-40
2023/04/11 06:37:55;;;;;;;;;;;;;;;32.90;55.67;100741.13;5078162;27;65982;-40
2023/04/11 06:40:26;;;;;;;;;;;;;;;32.90;55.35;100727.56;5074289;27;70150;-40
2023/04/11 06:42:58;;;;;;;;;;;;;;;32.93;55.49;100724.34;5077231;27;66948;-39
2023/04/11 06:45:29;;;;;;;;;;;;;;;32.93;55.58;100716.22;5078524;27;70679;-40
2023/04/11 06:47:59;;;;;;;;;;;;;;;32.96;55.67;100716.78;5060306;28;66184;-40
2023/04/11 06:50:29;;;;;;;;;;;;;;;32.99;55.54;100710.84;5059358;28;70401;-42
2023/04/11 06:52:59;;;;;;;;;;;;;;;33.00;55.49;100698.97;5077607;27;66960;-39
2023/04/11 06:55:30;;;;;;;;;;;;;;;33.02;55.47;100694.13;5093533;27;69819;-39
2023/04/11 06:58:00;;;;;;;;;;;;;;;33.03;55.41;100684.91;5076967;28;65761;-40
2023/04/11 07:00:30;;;;;;;;;;;;;;;33.06;55.41;100698.84;5078243;27;69995;-39
2023/04/11 07:03:06;;;;;;;;;;;;;;;33.06;55.37;100687.13;5077680;27;66000;-40
2023/04/11 07:05:37;;;;;;;;;;;;;;;33.08;55.43;100685.03;5080499;27;70194;-41
2023/04/11 07:08:07;;;;;;;;;;;;;;;33.09;55.43;100676.59;5078646;27;66274;-41
2023/04/11 07:10:37;;;;;;;;;;;;;;;33.11;55.23;100679.09;5078897;27;70744;-41
2023/04/11 07:13:07;;;;;;;;;;;;;;;33.13;55.23;100671.53;5078309;27;66461;-40
2023/04/11 07:15:37;;;;;;;;;;;;;;;33.13;55.22;100660.66;5066689;27;69536;-41
2023/04/11 07:18:07;;;;;;;;;;;;;;;33.16;55.10;100662.91;5059677;28;66089;-41
2023/04/11 07:20:38;;;;;;;;;;;;;;;33.17;55.24;100650.94;5052754;28;70536;-40
2023/04/11 07:23:08;;;;;;;;;;;;;;;33.19;55.01;100654.25;5079830;27;65712;-40
2023/04/11 07:25:38;;;;;;;;;;;;;;;33.21;55.11;100646.69;5059765;28;70546;-39
2023/04/11 07:28:09;;;;;;;;;;;;;;;33.23;55.14;100639.09;5073714;27;66726;-41
2023/04/11 07:30:40;;;;;;;;;;;;;;;33.25;54.79;100636.97;5079927;27;70129;-39
2023/04/11 07:33:10;;;;;;;;;;;;;;;33.26;54.78;100637.78;5081104;27;66103;-38
2023/04/11 07:35:40;;;;;;;;;;;;;;;33.27;54.97;100634.84;5086025;27;69850;-39
2023/04/11 07:38:11;;;;;;;;;;;;;;;33.28;55.01;100625.63;5079902;27;66400;-42
2023/04/11 07:40:41;;;;;;;;;;;;;;;33.28;55.06;100625.63;5073416;27;68911;-39
2023/04/11 07:43:11;;;;;;;;;;;;;;;33.30;54.93;100626.22;5078043;27;66608;-40
2023/04/11 07:45:42;;;;;;;;;;;;;;;33.29;54.84;100616.41;5077898;27;70037;-41
2023/04/11 07:48:13;;;;;;;;;;;;;;;33.30;55.05;100618.06;5071609;27;65640;-41
2023/04/11 07:50:43;;;;;;;;;;;;;;;33.33;54.99;100614.84;5089644;27;69615;-42
2023/04/11 07:53:14;;;;;;;;;;;;;;;33.34;55.01;100611.03;5088493;27;66611;-41
2023/04/11 07:55:45;;;;;;;;;;;;;;;33.35;54.90;100604.56;5072590;27;70397;-41
2023/04/11 07:58:15;;;;;;;;;;;;;;;33.35;54.98;100603.75;5050902;27;66659;-39
2023/04/11 08:00:46;;;;;;;;;;;;;;;33.36;54.73;100600.75;5074402;27;69672;-40
2023/04/11 08:03:16;;;;;;;;;;;;;;;33.40;54.52;100605.72;5071864;27;66600;-39
2023/04/11 08:05:47;;;;;;;;;;;;;;;33.38;54.47;100593.19;5076438;27;69673;-40
2023/04/11 08:08:17;;;;;;;;;;;;;;;33.40;54.72;100590.22;5077722;27;65755;-41
2023/04/11 08:10:47;;;;;;;;;;;;;;;33.40;54.53;100601.09;5076994;27;69700;-40
2023/04/11 08:13:20;;;;;;;;;;;;;;;33.42;54.77;100595.41;5077004;27;66230;-41
2023/04/11 08:15:50;;;;;;;;;;;;;;;33.44;54.64;100588.66;5056919;27;69496;-39
2023/04/11 08:18:20;;;;;;;;;;;;;;;33.46;54.53;100582.97;5077297;27;66474;-39
2023/04/11 08:20:53;;;;;;;;;;;;;;;33.47;54.65;100580.03;5040469;27;69576;-40
2023/04/11 08:23:24;;;;;;;;;;;;;;;33.49;54.52;100585.19;5086806;27;66035;-40
2023/04/11 08:25:54;;;;;;;;;;;;;;;33.52;54.50;100582.00;5076908;27;70356;-40
2023/04/11 08:28:24;;;;;;;;;;;;;;;33.54;54.38;100580.72;5079183;27;65647;-39
2023/04/11 08:30:57;;;;;;;;;;;;;;;33.54;54.49;100580.72;5058149;28;68987;-44
2023/04/11 08:33:27;;;;;;;;;;;;;;;33.57;54.36;100573.94;5081088;27;66090;-39
2023/04/11 08:35:57;;;;;;;;;;;;;;;33.57;54.41;100579.38;5082397;27;70105;-40
2023/04/11 08:38:27;;;;;;;;;;;;;;;33.57;54.17;100573.94;5078292;27;66451;-39
2023/04/11 08:40:57;;;;;;;;;;;;;;;33.57;54.31;100573.94;5079792;27;70454;-40
2023/04/11 08:43:28;;;;;;;;;;;;;;;33.57;54.58;100569.34;5080165;27;66212;-39
2023/04/11 08:46:01;;;;;;;;;;;;;;;33.59;54.33;100567.19;5078036;27;70652;-40
2023/04/11 08:48:31;;;;;;;;;;;;;;;33.59;54.31;100566.38;5079600;27;65814;-39
2023/04/11 08:51:02;;;;;;;;;;;;;;;33.61;54.35;100563.41;5079140;27;69590;-44
2023/04/11 08:53:35;;;;;;;;;;;;;;;33.63;54.53;100567.53;5080176;27;66323;-39
2023/04/11 08:56:05;;;;;;;;;;;;;;;33.64;54.29;100563.75;5080944;27;69433;-40
2023/04/11 08:58:35;;;;;;;;;;;;;;;33.65;54.11;100565.38;5078136;27;66654;-39
2023/04/11 09:01:23;;;;;;;;;;;;;;;33.66;53.95;100567.06;5077537;27;70686;-40
2023/04/11 09:03:54;;;;;;;;;;;;;;;33.68;54.15;100558.63;5075544;27;65624;-39
2023/04/11 09:06:25;;;;;;;;;;;;;;;33.69;54.23;100566.56;5075616;27;70142;-39
2023/04/11 09:08:59;;;;;;;;;;;;;;;33.71;53.95;100569.84;5080546;27;66768;-39
2023/04/11 09:11:29;;;;;;;;;;;;;;;33.71;54.36;100569.84;5059832;28;69239;-39
2023/04/11 09:14:06;;;;;;;;;;;;;;;33.71;54.12;100569.84;5079544;27;66482;-39
2023/04/11 09:16:36;;;;;;;;;;;;;;;33.72;54.12;100576.94;5078310;27;69916;-39
2023/04/11 09:19:22;;;;;;;;;;;;;;;33.72;54.46;100587.00;5069661;27;65509;-43
2023/04/11 09:21:52;;;;;;;;;;;;;;;33.53;56.82;100589.13;5073913;27;70301;-40
2023/04/11 09:24:25;;;;;;;;;;;;;;;33.38;57.64;100582.31;5080103;27;66269;-51
2023/04/11 09:27:15;;;;;;;;;;;;;;;33.31;58.39;100592.50;5061433;28;69540;-41
2023/04/11 09:29:46;;;;;;;;;;;;;;;33.25;58.83;100596.19;5079612;27;66308;-42
2023/04/11 09:32:32;;;;;;;;;;;;;;;33.20;59.19;100585.22;5077592;27;70514;-40
2023/04/11 09:35:19;;;;;;;;;;;;;;;33.18;59.04;100587.34;5077609;27;66585;-40
2023/04/11 09:37:51;;;;;;;;;;;;;;;33.13;59.37;100584.56;5074398;27;69276;-41
2023/04/11 09:40:23;;;;;;;;;;;;;;;33.11;59.65;100598.38;5074758;27;65136;-41
2023/04/11 09:43:01;;;;;;;;;;;;;;;33.09;59.85;100589.66;5058218;28;70427;-41
2023/04/11 09:45:31;;;;;;;;;;;;;;;33.09;59.67;100591.53;5076659;27;65380;-42
2023/04/11 09:48:12;;;;;;;;;;;;;;;33.09;60.14;100592.38;5072196;28;70650;-43
2023/04/11 09:50:42;;;;;;;;;;;;;;;33.08;59.76;100598.06;5075946;28;66828;-42
2023/04/11 09:53:13;;;;;;;;;;;;;;;33.06;60.02;100594.75;5075346;27;69105;-40
2023/04/11 09:55:44;;;;;;;;;;;;;;;33.07;59.81;100591.81;5074924;27;66200;-43
2023/04/11 09:58:14;;;;;;;;;;;;;;;33.06;59.87;100594.75;5075362;27;70171;-42
2023/04/11 10:00:46;;;;;;;;;;;;;;;33.07;60.08;100604.53;5050102;28;66377;-41
2023/04/11 10:03:18;;;;;;;;;;;;;;;33.07;60.03;100607.25;5075705;27;70606;-41
2023/04/11 10:05:52;;;;;;;;;;;;;;;33.04;60.02;100600.44;5076810;27;66940;-41
2023/04/11 10:08:31;;;;;;;;;;;;;;;33.04;60.25;100597.72;5086584;27;70992;-43
2023/04/11 10:11:06;;;;;;;;;;;;;;;33.05;60.29;100612.13;5075438;27;66026;-40
2023/04/11 10:13:43;;;;;;;;;;;;;;;33.04;60.20;100610.47;5074921;28;69854;-40
2023/04/11 10:16:14;;;;;;;;;;;;;;;33.03;60.37;100608.81;5077855;27;66748;-40
2023/04/11 10:18:47;;;;;;;;;;;;;;;33.04;60.19;100616.75;5076495;27;69717;-42
2023/04/11 10:21:29;;;;;;;;;;;;;;;33.06;60.31;100606.44;5057933;28;66677;-40
2023/04/11 10:24:21;;;;;;;;;;;;;;;32.91;60.64;100587.91;5075726;27;70204;-42
2023/04/11 10:26:56;;;;;;;;;;;;;;;33.08;60.34;100628.75;5075236;27;67188;-44
2023/04/11 10:29:32;;;;;;;;;;;;;;;33.07;60.22;100621.69;5064566;27;70660;-41
2023/04/11 10:32:15;;;;;;;;;;;;;;;33.06;60.87;100627.34;5074331;27;65598;-42
2023/04/11 10:34:52;;;;;;;;;;;;;;;33.09;61.20;100626.88;5076966;27;69244;-40
2023/04/11 10:37:32;;;;;;;;;;;;;;;33.10;61.35;100628.53;5074821;27;67037;-40
2023/04/11 10:40:11;;;;;;;;;;;;;;;33.09;61.60;100624.16;5071547;27;69259;-41
2023/04/11 10:42:42;;;;;;;;;;;;;;;33.06;61.07;100630.06;5075694;27;65747;-42
2023/04/11 10:45:25;;;;;;;;;;;;;;;33.08;61.18;100630.66;5076552;27;69944;-41
2023/04/11 10:47:55;;;;;;;;;;;;;;;33.19;60.33;100632.50;5089671;27;66403;-46
2023/04/11 10:50:26;;;;;;;;;;;;;;;33.25;60.12;100636.16;5078461;27;70113;-42
2023/04/11 10:53:19;;;;;;;;;;;;;;;33.32;59.90;100643.09;5071227;27;66023;-41
2023/04/11 10:55:50;;;;;;;;;;;;;;;33.37;59.39;100645.91;5076364;27;70175;-41
2023/04/11 10:58:20;;;;;;;;;;;;;;;33.35;59.16;100650.78;5077965;27;66278;-42
2023/04/11 11:00:58;;;;;;;;;;;;;;;33.40;59.01;100655.47;5060798;27;70226;-41
2023/04/11 11:03:32;;;;;;;;;;;;;;;33.44;58.94;100661.25;5077046;27;66636;-40
2023/04/11 11:06:05;;;;;;;;;;;;;;;33.47;58.83;100656.16;5091313;27;68980;-40
2023/04/11 11:08:36;;;;;;;;;;;;;;;33.47;58.48;100658.06;5064242;28;66721;-40
2023/04/11 11:11:08;;;;;;;;;;;;;;;33.48;58.17;100670.56;5080319;27;70313;-40
2023/04/11 11:13:52;;;;;;;;;;;;;;;33.47;58.27;100667.03;5077019;27;66229;-41
2023/04/11 11:16:24;;;;;;;;;;;;;;;33.48;57.89;100674.09;5072504;27;69817;-41
2023/04/11 11:18:55;;;;;;;;;;;;;;;33.50;57.92;100682.03;5060249;28;65235;-40
2023/04/11 11:21:27;;;;;;;;;;;;;;;33.50;57.86;100676.59;5075295;27;69731;-41
2023/04/11 11:24:01;;;;;;;;;;;;;;;33.48;57.70;100684.16;5076426;27;66037;-40
2023/04/11 11:26:49;;;;;;;;;;;;;;;33.49;57.67;100680.38;5049221;28;70071;-41
2023/04/11 11:29:38;;;;;;;;;;;;;;;33.49;57.53;100680.38;5062174;28;66246;-43
2023/04/11 11:43:36;;;;;;;;;;;;;;;33.44;57.67;100692.00;5026637;28;66431;-41
2023/04/11 11:46:59;;;;;;;;;;;;;;;33.45;57.57;100700.97;5075343;27;70136;-40
2023/04/11 11:53:13;;;;;;;;;;;;;;;33.21;59.78;100720.09;5044095;27;70206;-39
2023/04/11 11:55:43;;;;;;;;;;;;;;;33.08;61.13;100718.44;5089373;27;67535;-41
2023/04/11 11:58:14;;;;;;;;;;;;;;;33.05;62.21;100720.81;5073503;27;69845;-42
2023/04/11 12:00:51;;;;;;;;;;;;;;;32.93;61.87;100721.63;5074045;27;67454;-39
2023/04/11 12:03:36;;;;;;;;;;;;;;;32.76;59.16;100726.13;5074631;27;70618;-39
2023/04/11 12:06:08;;;;;;;;;;;;;;;32.58;57.23;100734.41;5076781;27;66908;-41
2023/04/11 12:08:43;;;;;;;;;;;;;;;32.39;55.55;100734.47;5079680;27;70007;-40
2023/04/11 12:11:15;;;;;;;;;;;;;;;32.18;54.04;100737.72;5076250;27;66272;-40
2023/04/11 12:13:51;;;;;;;;;;;;;;;31.97;51.81;100745.34;5060379;27;70199;-40
2023/04/11 12:16:52;;;;;;;;;;;;;;;31.76;50.46;100762.94;5080341;27;65879;-42
2023/04/11 12:19:22;;;;;;;;;;;;;;;31.55;49.10;100758.81;5078933;27;69940;-39
2023/04/11 12:21:53;;;;;;;;;;;;;;;31.46;49.61;100754.78;5077030;27;66021;-40
2023/04/11 12:24:23;;;;;;;;;;;;;;;31.36;48.39;100754.47;5076656;27;70006;-41
2023/04/11 12:26:53;;;;;;;;;;;;;;;31.29;48.07;100748.28;5077894;27;66229;-40
2023/04/11 12:29:35;;;;;;;;;;;;;;;31.13;48.33;100750.53;5042788;27;70044;-40
2023/04/11 12:32:05;;;;;;;;;;;;;;;31.06;47.30;100755.19;5079078;27;66014;-39
2023/04/11 12:34:35;;;;;;;;;;;;;;;31.02;47.03;100769.41;5081272;27;69587;-41
2023/04/11 12:37:05;;;;;;;;;;;;;;;30.93;47.23;100777.00;5079741;27;65522;-38
2023/04/11 12:39:37;;;;;;;;;;;;;;;30.90;47.07;100782.88;5081811;27;69871;-41
2023/04/11 12:42:07;;;;;;;;;;;;;;;30.85;48.13;100788.13;5062962;28;65265;-39
2023/04/11 12:44:40;;;;;;;;;;;;;;;30.82;49.20;100785.84;5095400;27;70353;-40
2023/04/11 12:47:10;;;;;;;;;;;;;;;30.78;49.72;100787.31;5080766;27;65564;-40
2023/04/11 12:49:42;;;;;;;;;;;;;;;30.75;52.44;100788.56;5080594;27;70484;-40
2023/04/11 12:52:13;;;;;;;;;;;;;;;30.81;55.97;100800.44;5076283;27;66160;-39
2023/04/11 12:54:44;;;;;;;;;;;;;;;30.84;54.91;100808.09;5079473;27;70641;-39
2023/04/11 12:57:14;;;;;;;;;;;;;;;30.77;52.79;100810.84;5078559;27;65975;-41
2023/04/11 12:59:50;;;;;;;;;;;;;;;30.71;52.41;100817.16;5078811;27;70772;-39
2023/04/11 13:02:20;;;;;;;;;;;;;;;30.70;52.11;100827.16;5075418;27;66004;-39
2023/04/11 13:04:54;;;;;;;;;;;;;;;30.64;51.65;100832.63;5078308;28;70800;-40
2023/04/11 13:07:24;;;;;;;;;;;;;;;30.62;50.35;100840.97;5077934;27;66912;-42
2023/04/11 13:09:55;;;;;;;;;;;;;;;30.59;49.80;100841.41;5072351;27;69527;-39
2023/04/11 13:12:29;;;;;;;;;;;;;;;30.57;49.05;100842.69;5079434;27;66438;-40
2023/04/11 13:15:01;;;;;;;;;;;;;;;30.50;49.01;100845.41;5094132;27;70923;-41
2023/04/11 13:17:33;;;;;;;;;;;;;;;30.49;48.10;100839.19;5078439;28;66061;-41
2023/04/11 13:20:08;;;;;;;;;;;;;;;30.50;48.36;100842.72;5078465;27;70141;-41
2023/04/11 13:22:43;;;;;;;;;;;;;;;30.47;47.71;100848.56;5058674;27;66203;-42